sensor_id;sensor_type;location;lat;lon;timestamp;P1;durP1;ratioP1;P2;durP2;ratioP2
45887;SDS011;31595;51.418;7.572;2022-07-29T00:01:13;3.78;;;1.55;;
45887;SDS011;31595;51.418;7.572;2022-07-29T00:03:41;5.53;;;1.50;;
45887;SDS011;31595;51.418;7.572;2022-07-29T00:06:10;7.95;;;2.03;;
45887;SDS011;31595;51.418;7.572;2022-07-29T00:08:37;3.75;;;1.40;;
45887;SDS011;31595;51.418;7.572;2022-07-29T00:11:05;3.65;;;1.55;;
45887;SDS011;31595;51.418;7.572;2022-07-29T00:13:32;3.90;;;1.70;;
45887;SDS011;31595;51.418;7.572;2022-07-29T00:15:59;3.88;;;1.70;;
45887;SDS011;31595;51.418;7.572;2022-07-29T00:18:28;4.63;;;1.40;;
45887;SDS011;31595;51.418;7.572;2022-07-29T00:20:56;3.38;;;1.35;;
45887;SDS011;31595;51.418;7.572;2022-07-29T00:23:24;3.97;;;1.52;;
45887;SDS011;31595;51.418;7.572;2022-07-29T00:25:51;4.53;;;1.42;;
45887;SDS011;31595;51.418;7.572;2022-07-29T00:28:19;2.85;;;1.65;;
45887;SDS011;31595;51.418;7.572;2022-07-29T00:30:46;2.90;;;1.35;;
45887;SDS011;31595;51.418;7.572;2022-07-29T00:33:17;4.07;;;1.52;;
45887;SDS011;31595;51.418;7.572;2022-07-29T00:35:44;3.15;;;1.73;;
45887;SDS011;31595;51.418;7.572;2022-07-29T00:38:11;3.60;;;1.50;;
45887;SDS011;31595;51.418;7.572;2022-07-29T00:40:41;4.65;;;1.50;;
45887;SDS011;31595;51.418;7.572;2022-07-29T00:43:09;4.25;;;1.27;;
45887;SDS011;31595;51.418;7.572;2022-07-29T00:45:37;5.93;;;1.80;;
45887;SDS011;31595;51.418;7.572;2022-07-29T00:48:04;4.88;;;1.60;;
45887;SDS011;31595;51.418;7.572;2022-07-29T00:50:35;3.50;;;1.55;;
45887;SDS011;31595;51.418;7.572;2022-07-29T00:53:03;4.68;;;1.73;;
45887;SDS011;31595;51.418;7.572;2022-07-29T00:55:32;2.45;;;1.40;;
45887;SDS011;31595;51.418;7.572;2022-07-29T00:58:01;3.58;;;1.50;;
45887;SDS011;31595;51.418;7.572;2022-07-29T01:00:28;3.72;;;1.40;;
45887;SDS011;31595;51.418;7.572;2022-07-29T01:02:56;3.88;;;1.52;;
45887;SDS011;31595;51.418;7.572;2022-07-29T01:05:24;3.65;;;1.50;;
45887;SDS011;31595;51.418;7.572;2022-07-29T01:07:56;4.05;;;1.67;;
45887;SDS011;31595;51.418;7.572;2022-07-29T01:10:25;3.03;;;1.45;;
45887;SDS011;31595;51.418;7.572;2022-07-29T01:12:54;3.72;;;1.20;;
45887;SDS011;31595;51.418;7.572;2022-07-29T01:15:27;3.80;;;1.45;;
45887;SDS011;31595;51.418;7.572;2022-07-29T01:17:57;2.70;;;1.48;;
45887;SDS011;31595;51.418;7.572;2022-07-29T01:20:31;5.57;;;1.98;;
45887;SDS011;31595;51.418;7.572;2022-07-29T01:23:16;7.65;;;2.13;;
45887;SDS011;31595;51.418;7.572;2022-07-29T01:29:02;4.47;;;1.50;;
45887;SDS011;31595;51.418;7.572;2022-07-29T01:31:35;4.28;;;1.90;;
45887;SDS011;31595;51.418;7.572;2022-07-29T01:34:08;5.20;;;1.55;;
45887;SDS011;31595;51.418;7.572;2022-07-29T01:36:43;5.47;;;1.67;;
45887;SDS011;31595;51.418;7.572;2022-07-29T01:39:23;5.05;;;1.45;;
45887;SDS011;31595;51.418;7.572;2022-07-29T01:41:56;2.97;;;1.60;;
45887;SDS011;31595;51.418;7.572;2022-07-29T01:44:31;4.15;;;1.77;;
45887;SDS011;31595;51.418;7.572;2022-07-29T01:47:05;3.53;;;1.40;;
45887;SDS011;31595;51.418;7.572;2022-07-29T01:49:40;3.50;;;1.50;;
45887;SDS011;31595;51.418;7.572;2022-07-29T01:52:14;3.42;;;1.45;;
45887;SDS011;31595;51.418;7.572;2022-07-29T01:54:48;4.68;;;1.85;;
45887;SDS011;31595;51.418;7.572;2022-07-29T01:57:26;4.43;;;1.80;;
45887;SDS011;31595;51.418;7.572;2022-07-29T01:59:59;11.13;;;2.08;;
45887;SDS011;31595;51.418;7.572;2022-07-29T02:02:28;4.18;;;1.80;;
45887;SDS011;31595;51.418;7.572;2022-07-29T02:04:58;3.58;;;1.70;;
45887;SDS011;31595;51.418;7.572;2022-07-29T02:07:30;3.97;;;1.40;;
45887;SDS011;31595;51.418;7.572;2022-07-29T02:09:59;3.10;;;1.40;;
45887;SDS011;31595;51.418;7.572;2022-07-29T02:12:29;6.15;;;1.90;;
45887;SDS011;31595;51.418;7.572;2022-07-29T02:15:02;3.78;;;1.63;;
45887;SDS011;31595;51.418;7.572;2022-07-29T02:17:32;5.82;;;1.80;;
45887;SDS011;31595;51.418;7.572;2022-07-29T02:20:06;4.07;;;1.65;;
45887;SDS011;31595;51.418;7.572;2022-07-29T02:22:38;4.43;;;1.90;;
45887;SDS011;31595;51.418;7.572;2022-07-29T02:25:07;4.95;;;2.00;;
45887;SDS011;31595;51.418;7.572;2022-07-29T02:27:36;4.63;;;1.50;;
45887;SDS011;31595;51.418;7.572;2022-07-29T02:30:07;4.13;;;1.80;;
45887;SDS011;31595;51.418;7.572;2022-07-29T02:32:38;5.03;;;1.60;;
45887;SDS011;31595;51.418;7.572;2022-07-29T02:35:12;4.10;;;1.73;;
45887;SDS011;31595;51.418;7.572;2022-07-29T02:37:41;4.78;;;1.80;;
45887;SDS011;31595;51.418;7.572;2022-07-29T02:40:31;3.65;;;2.20;;
45887;SDS011;31595;51.418;7.572;2022-07-29T02:43:00;4.90;;;1.73;;
45887;SDS011;31595;51.418;7.572;2022-07-29T02:45:30;4.90;;;1.60;;
45887;SDS011;31595;51.418;7.572;2022-07-29T02:48:03;4.40;;;1.80;;
45887;SDS011;31595;51.418;7.572;2022-07-29T02:50:33;2.40;;;1.42;;
45887;SDS011;31595;51.418;7.572;2022-07-29T02:53:05;6.78;;;1.90;;
45887;SDS011;31595;51.418;7.572;2022-07-29T02:55:40;5.55;;;2.13;;
45887;SDS011;31595;51.418;7.572;2022-07-29T02:58:13;3.10;;;1.58;;
45887;SDS011;31595;51.418;7.572;2022-07-29T03:03:20;7.65;;;1.80;;
45887;SDS011;31595;51.418;7.572;2022-07-29T03:05:48;3.88;;;1.77;;
45887;SDS011;31595;51.418;7.572;2022-07-29T03:08:16;5.75;;;1.92;;
45887;SDS011;31595;51.418;7.572;2022-07-29T03:10:44;3.58;;;1.70;;
45887;SDS011;31595;51.418;7.572;2022-07-29T03:13:13;6.25;;;1.90;;
45887;SDS011;31595;51.418;7.572;2022-07-29T03:15:42;4.82;;;2.13;;
45887;SDS011;31595;51.418;7.572;2022-07-29T03:18:12;2.83;;;1.67;;
45887;SDS011;31595;51.418;7.572;2022-07-29T03:20:41;3.25;;;1.73;;
45887;SDS011;31595;51.418;7.572;2022-07-29T03:23:09;3.47;;;2.00;;
45887;SDS011;31595;51.418;7.572;2022-07-29T03:25:36;3.92;;;1.60;;
45887;SDS011;31595;51.418;7.572;2022-07-29T03:28:04;3.05;;;1.98;;
45887;SDS011;31595;51.418;7.572;2022-07-29T03:30:31;2.67;;;1.70;;
45887;SDS011;31595;51.418;7.572;2022-07-29T03:32:58;9.18;;;2.20;;
45887;SDS011;31595;51.418;7.572;2022-07-29T03:35:28;7.28;;;2.35;;
45887;SDS011;31595;51.418;7.572;2022-07-29T03:37:57;6.70;;;2.20;;
45887;SDS011;31595;51.418;7.572;2022-07-29T03:40:26;6.03;;;2.40;;
45887;SDS011;31595;51.418;7.572;2022-07-29T03:42:57;4.65;;;2.20;;
45887;SDS011;31595;51.418;7.572;2022-07-29T03:47:56;5.07;;;1.80;;
45887;SDS011;31595;51.418;7.572;2022-07-29T03:50:29;5.80;;;2.20;;
45887;SDS011;31595;51.418;7.572;2022-07-29T03:52:57;5.07;;;2.20;;
45887;SDS011;31595;51.418;7.572;2022-07-29T03:55:25;4.30;;;1.73;;
45887;SDS011;31595;51.418;7.572;2022-07-29T03:57:55;3.63;;;2.08;;
45887;SDS011;31595;51.418;7.572;2022-07-29T04:00:24;5.37;;;1.70;;
45887;SDS011;31595;51.418;7.572;2022-07-29T04:02:52;4.90;;;1.97;;
45887;SDS011;31595;51.418;7.572;2022-07-29T04:05:19;3.45;;;1.90;;
45887;SDS011;31595;51.418;7.572;2022-07-29T04:07:48;4.60;;;1.80;;
45887;SDS011;31595;51.418;7.572;2022-07-29T04:10:16;7.65;;;2.45;;
45887;SDS011;31595;51.418;7.572;2022-07-29T04:12:44;2.67;;;2.10;;
45887;SDS011;31595;51.418;7.572;2022-07-29T04:15:11;5.85;;;2.40;;
45887;SDS011;31595;51.418;7.572;2022-07-29T04:17:39;3.28;;;2.00;;
45887;SDS011;31595;51.418;7.572;2022-07-29T04:20:06;4.22;;;1.70;;
45887;SDS011;31595;51.418;7.572;2022-07-29T04:22:34;4.25;;;2.28;;
45887;SDS011;31595;51.418;7.572;2022-07-29T04:25:03;3.83;;;2.00;;
45887;SDS011;31595;51.418;7.572;2022-07-29T04:27:31;5.68;;;2.13;;
45887;SDS011;31595;51.418;7.572;2022-07-29T04:29:58;3.97;;;2.00;;
45887;SDS011;31595;51.418;7.572;2022-07-29T04:32:26;8.80;;;2.45;;
45887;SDS011;31595;51.418;7.572;2022-07-29T04:34:53;4.45;;;2.00;;
45887;SDS011;31595;51.418;7.572;2022-07-29T04:37:20;5.03;;;2.17;;
45887;SDS011;31595;51.418;7.572;2022-07-29T04:39:47;3.13;;;1.70;;
45887;SDS011;31595;51.418;7.572;2022-07-29T04:42:16;4.85;;;2.22;;
45887;SDS011;31595;51.418;7.572;2022-07-29T04:44:43;8.63;;;2.13;;
45887;SDS011;31595;51.418;7.572;2022-07-29T04:47:10;3.88;;;1.80;;
45887;SDS011;31595;51.418;7.572;2022-07-29T04:49:38;3.33;;;1.85;;
45887;SDS011;31595;51.418;7.572;2022-07-29T04:52:05;6.30;;;2.17;;
45887;SDS011;31595;51.418;7.572;2022-07-29T04:54:33;7.53;;;2.20;;
45887;SDS011;31595;51.418;7.572;2022-07-29T04:57:00;4.57;;;1.85;;
45887;SDS011;31595;51.418;7.572;2022-07-29T04:59:29;8.88;;;2.38;;
45887;SDS011;31595;51.418;7.572;2022-07-29T05:01:56;6.25;;;2.53;;
45887;SDS011;31595;51.418;7.572;2022-07-29T05:04:23;6.80;;;2.10;;
45887;SDS011;31595;51.418;7.572;2022-07-29T05:06:50;7.00;;;2.53;;
45887;SDS011;31595;51.418;7.572;2022-07-29T05:09:18;6.97;;;1.80;;
45887;SDS011;31595;51.418;7.572;2022-07-29T05:11:45;4.78;;;1.83;;
45887;SDS011;31595;51.418;7.572;2022-07-29T05:14:12;4.53;;;1.90;;
45887;SDS011;31595;51.418;7.572;2022-07-29T05:16:41;3.95;;;1.60;;
45887;SDS011;31595;51.418;7.572;2022-07-29T05:19:09;3.10;;;1.77;;
45887;SDS011;31595;51.418;7.572;2022-07-29T05:21:36;3.53;;;1.75;;
45887;SDS011;31595;51.418;7.572;2022-07-29T05:24:03;5.45;;;1.77;;
45887;SDS011;31595;51.418;7.572;2022-07-29T05:26:31;8.50;;;2.28;;
45887;SDS011;31595;51.418;7.572;2022-07-29T05:28:58;3.13;;;1.60;;
45887;SDS011;31595;51.418;7.572;2022-07-29T05:31:25;5.25;;;1.60;;
45887;SDS011;31595;51.418;7.572;2022-07-29T05:33:54;2.97;;;1.30;;
45887;SDS011;31595;51.418;7.572;2022-07-29T05:36:22;3.72;;;1.63;;
45887;SDS011;31595;51.418;7.572;2022-07-29T05:38:53;3.35;;;1.80;;
45887;SDS011;31595;51.418;7.572;2022-07-29T05:41:20;3.13;;;1.60;;
45887;SDS011;31595;51.418;7.572;2022-07-29T05:43:48;5.30;;;1.77;;
45887;SDS011;31595;51.418;7.572;2022-07-29T05:46:15;4.00;;;1.58;;
45887;SDS011;31595;51.418;7.572;2022-07-29T05:48:42;3.72;;;1.75;;
45887;SDS011;31595;51.418;7.572;2022-07-29T05:51:11;5.70;;;1.48;;
45887;SDS011;31595;51.418;7.572;2022-07-29T05:53:38;4.13;;;1.50;;
45887;SDS011;31595;51.418;7.572;2022-07-29T05:56:06;3.38;;;1.70;;
45887;SDS011;31595;51.418;7.572;2022-07-29T05:58:34;2.70;;;1.50;;
45887;SDS011;31595;51.418;7.572;2022-07-29T06:01:01;5.40;;;1.92;;
45887;SDS011;31595;51.418;7.572;2022-07-29T06:03:29;4.05;;;1.80;;
45887;SDS011;31595;51.418;7.572;2022-07-29T06:05:56;3.65;;;1.58;;
45887;SDS011;31595;51.418;7.572;2022-07-29T06:08:26;3.63;;;1.90;;
45887;SDS011;31595;51.418;7.572;2022-07-29T06:10:53;5.78;;;1.67;;
45887;SDS011;31595;51.418;7.572;2022-07-29T06:13:20;4.88;;;1.63;;
45887;SDS011;31595;51.418;7.572;2022-07-29T06:15:47;3.20;;;1.33;;
45887;SDS011;31595;51.418;7.572;2022-07-29T06:18:15;5.00;;;2.20;;
45887;SDS011;31595;51.418;7.572;2022-07-29T06:20:42;5.32;;;1.80;;
45887;SDS011;31595;51.418;7.572;2022-07-29T06:23:09;5.50;;;1.70;;
45887;SDS011;31595;51.418;7.572;2022-07-29T06:25:39;4.45;;;1.70;;
45887;SDS011;31595;51.418;7.572;2022-07-29T06:28:06;5.00;;;1.60;;
45887;SDS011;31595;51.418;7.572;2022-07-29T06:30:33;3.30;;;1.52;;
45887;SDS011;31595;51.418;7.572;2022-07-29T06:33:01;3.78;;;1.70;;
45887;SDS011;31595;51.418;7.572;2022-07-29T06:35:28;6.22;;;2.10;;
45887;SDS011;31595;51.418;7.572;2022-07-29T06:37:56;6.82;;;2.10;;
45887;SDS011;31595;51.418;7.572;2022-07-29T06:40:23;3.10;;;1.85;;
45887;SDS011;31595;51.418;7.572;2022-07-29T06:43:09;5.95;;;1.55;;
45887;SDS011;31595;51.418;7.572;2022-07-29T06:45:36;5.25;;;1.58;;
45887;SDS011;31595;51.418;7.572;2022-07-29T06:48:06;4.88;;;1.75;;
45887;SDS011;31595;51.418;7.572;2022-07-29T06:50:33;6.07;;;1.88;;
45887;SDS011;31595;51.418;7.572;2022-07-29T06:53:01;7.72;;;1.70;;
45887;SDS011;31595;51.418;7.572;2022-07-29T06:55:28;5.28;;;1.75;;
45887;SDS011;31595;51.418;7.572;2022-07-29T06:57:55;3.50;;;1.60;;
45887;SDS011;31595;51.418;7.572;2022-07-29T07:00:24;6.53;;;2.05;;
45887;SDS011;31595;51.418;7.572;2022-07-29T07:02:51;4.03;;;1.70;;
45887;SDS011;31595;51.418;7.572;2022-07-29T07:05:19;4.63;;;1.85;;
45887;SDS011;31595;51.418;7.572;2022-07-29T07:07:47;7.53;;;2.13;;
45887;SDS011;31595;51.418;7.572;2022-07-29T07:10:15;4.93;;;1.65;;
45887;SDS011;31595;51.418;7.572;2022-07-29T07:12:43;8.45;;;2.13;;
45887;SDS011;31595;51.418;7.572;2022-07-29T07:15:10;6.05;;;1.73;;
45887;SDS011;31595;51.418;7.572;2022-07-29T07:17:39;4.50;;;1.77;;
45887;SDS011;31595;51.418;7.572;2022-07-29T07:20:06;6.85;;;1.73;;
45887;SDS011;31595;51.418;7.572;2022-07-29T07:22:34;4.00;;;1.58;;
45887;SDS011;31595;51.418;7.572;2022-07-29T07:25:02;2.85;;;1.52;;
45887;SDS011;31595;51.418;7.572;2022-07-29T07:27:29;6.57;;;1.90;;
45887;SDS011;31595;51.418;7.572;2022-07-29T07:29:57;6.10;;;2.17;;
45887;SDS011;31595;51.418;7.572;2022-07-29T07:32:24;4.28;;;2.05;;
45887;SDS011;31595;51.418;7.572;2022-07-29T07:34:53;3.85;;;1.73;;
45887;SDS011;31595;51.418;7.572;2022-07-29T07:37:20;4.43;;;1.75;;
45887;SDS011;31595;51.418;7.572;2022-07-29T07:39:47;4.05;;;1.90;;
45887;SDS011;31595;51.418;7.572;2022-07-29T07:42:14;4.53;;;1.60;;
45887;SDS011;31595;51.418;7.572;2022-07-29T07:44:42;5.53;;;1.77;;
45887;SDS011;31595;51.418;7.572;2022-07-29T07:47:11;4.88;;;1.70;;
45887;SDS011;31595;51.418;7.572;2022-07-29T07:49:38;4.15;;;1.50;;
45887;SDS011;31595;51.418;7.572;2022-07-29T07:52:07;5.80;;;1.70;;
45887;SDS011;31595;51.418;7.572;2022-07-29T07:54:34;4.20;;;2.00;;
45887;SDS011;31595;51.418;7.572;2022-07-29T07:57:01;6.22;;;1.70;;
45887;SDS011;31595;51.418;7.572;2022-07-29T07:59:29;5.05;;;1.50;;
45887;SDS011;31595;51.418;7.572;2022-07-29T08:01:56;5.03;;;1.83;;
45887;SDS011;31595;51.418;7.572;2022-07-29T08:04:23;3.80;;;1.52;;
45887;SDS011;31595;51.418;7.572;2022-07-29T08:06:51;4.00;;;1.67;;
45887;SDS011;31595;51.418;7.572;2022-07-29T08:09:21;3.90;;;1.80;;
45887;SDS011;31595;51.418;7.572;2022-07-29T08:11:48;6.30;;;1.75;;
45887;SDS011;31595;51.418;7.572;2022-07-29T08:14:15;5.00;;;1.70;;
45887;SDS011;31595;51.418;7.572;2022-07-29T08:16:43;6.72;;;1.80;;
45887;SDS011;31595;51.418;7.572;2022-07-29T08:19:10;4.22;;;1.83;;
45887;SDS011;31595;51.418;7.572;2022-07-29T08:21:37;3.70;;;1.80;;
45887;SDS011;31595;51.418;7.572;2022-07-29T08:24:05;7.10;;;2.10;;
45887;SDS011;31595;51.418;7.572;2022-07-29T08:26:52;5.03;;;2.20;;
45887;SDS011;31595;51.418;7.572;2022-07-29T08:29:20;3.45;;;1.90;;
45887;SDS011;31595;51.418;7.572;2022-07-29T08:31:47;6.53;;;2.30;;
45887;SDS011;31595;51.418;7.572;2022-07-29T08:34:14;3.83;;;2.00;;
45887;SDS011;31595;51.418;7.572;2022-07-29T08:36:42;5.10;;;2.15;;
45887;SDS011;31595;51.418;7.572;2022-07-29T08:39:09;7.43;;;1.80;;
45887;SDS011;31595;51.418;7.572;2022-07-29T08:41:36;5.95;;;1.85;;
45887;SDS011;31595;51.418;7.572;2022-07-29T08:44:05;5.05;;;2.00;;
45887;SDS011;31595;51.418;7.572;2022-07-29T08:49:00;5.43;;;1.77;;
45887;SDS011;31595;51.418;7.572;2022-07-29T08:53:57;5.38;;;1.83;;
45887;SDS011;31595;51.418;7.572;2022-07-29T08:56:25;3.67;;;1.60;;
45887;SDS011;31595;51.418;7.572;2022-07-29T08:58:52;7.80;;;2.25;;
45887;SDS011;31595;51.418;7.572;2022-07-29T09:01:23;6.72;;;2.10;;
45887;SDS011;31595;51.418;7.572;2022-07-29T09:03:51;4.47;;;1.70;;
45887;SDS011;31595;51.418;7.572;2022-07-29T09:06:22;4.72;;;2.00;;
45887;SDS011;31595;51.418;7.572;2022-07-29T09:08:53;5.30;;;1.90;;
45887;SDS011;31595;51.418;7.572;2022-07-29T09:11:25;4.00;;;1.73;;
45887;SDS011;31595;51.418;7.572;2022-07-29T09:13:52;4.50;;;1.92;;
45887;SDS011;31595;51.418;7.572;2022-07-29T09:16:19;7.30;;;2.35;;
45887;SDS011;31595;51.418;7.572;2022-07-29T09:18:48;4.55;;;2.03;;
45887;SDS011;31595;51.418;7.572;2022-07-29T09:21:16;4.88;;;2.55;;
45887;SDS011;31595;51.418;7.572;2022-07-29T09:24:03;5.22;;;2.20;;
45887;SDS011;31595;51.418;7.572;2022-07-29T09:26:33;7.13;;;2.22;;
45887;SDS011;31595;51.418;7.572;2022-07-29T09:29:07;5.15;;;1.83;;
45887;SDS011;31595;51.418;7.572;2022-07-29T09:31:36;5.40;;;1.98;;
45887;SDS011;31595;51.418;7.572;2022-07-29T09:34:06;5.55;;;2.13;;
45887;SDS011;31595;51.418;7.572;2022-07-29T09:36:41;4.97;;;1.85;;
45887;SDS011;31595;51.418;7.572;2022-07-29T09:39:10;4.00;;;2.00;;
45887;SDS011;31595;51.418;7.572;2022-07-29T09:41:44;4.95;;;2.15;;
45887;SDS011;31595;51.418;7.572;2022-07-29T09:44:14;6.10;;;1.98;;
45887;SDS011;31595;51.418;7.572;2022-07-29T09:46:55;3.63;;;1.98;;
45887;SDS011;31595;51.418;7.572;2022-07-29T09:49:25;4.80;;;2.05;;
45887;SDS011;31595;51.418;7.572;2022-07-29T09:51:59;3.33;;;1.90;;
45887;SDS011;31595;51.418;7.572;2022-07-29T09:54:27;6.28;;;2.10;;
45887;SDS011;31595;51.418;7.572;2022-07-29T09:56:59;5.13;;;2.05;;
45887;SDS011;31595;51.418;7.572;2022-07-29T09:59:27;5.97;;;1.98;;
45887;SDS011;31595;51.418;7.572;2022-07-29T10:01:54;3.80;;;1.80;;
45887;SDS011;31595;51.418;7.572;2022-07-29T10:04:22;6.30;;;2.00;;
45887;SDS011;31595;51.418;7.572;2022-07-29T10:06:57;5.95;;;2.33;;
45887;SDS011;31595;51.418;7.572;2022-07-29T10:09:25;4.22;;;1.98;;
45887;SDS011;31595;51.418;7.572;2022-07-29T10:12:06;4.45;;;2.17;;
45887;SDS011;31595;51.418;7.572;2022-07-29T10:14:36;4.63;;;2.05;;
45887;SDS011;31595;51.418;7.572;2022-07-29T10:17:04;5.73;;;2.40;;
45887;SDS011;31595;51.418;7.572;2022-07-29T10:19:33;5.30;;;2.40;;
45887;SDS011;31595;51.418;7.572;2022-07-29T10:22:04;3.40;;;1.92;;
45887;SDS011;31595;51.418;7.572;2022-07-29T10:24:32;6.25;;;2.42;;
45887;SDS011;31595;51.418;7.572;2022-07-29T10:27:01;9.30;;;3.20;;
45887;SDS011;31595;51.418;7.572;2022-07-29T10:32:00;7.03;;;2.67;;
45887;SDS011;31595;51.418;7.572;2022-07-29T10:34:46;6.68;;;2.70;;
45887;SDS011;31595;51.418;7.572;2022-07-29T10:37:26;7.10;;;3.20;;
45887;SDS011;31595;51.418;7.572;2022-07-29T10:40:15;6.57;;;2.65;;
45887;SDS011;31595;51.418;7.572;2022-07-29T10:43:07;8.27;;;3.08;;
45887;SDS011;31595;51.418;7.572;2022-07-29T10:45:44;6.78;;;2.50;;
45887;SDS011;31595;51.418;7.572;2022-07-29T10:48:13;7.15;;;2.47;;
45887;SDS011;31595;51.418;7.572;2022-07-29T10:50:53;7.75;;;2.70;;
45887;SDS011;31595;51.418;7.572;2022-07-29T10:56:24;6.75;;;2.55;;
45887;SDS011;31595;51.418;7.572;2022-07-29T11:01:50;5.55;;;3.03;;
45887;SDS011;31595;51.418;7.572;2022-07-29T11:04:25;6.97;;;3.00;;
45887;SDS011;31595;51.418;7.572;2022-07-29T11:07:29;8.18;;;3.10;;
45887;SDS011;31595;51.418;7.572;2022-07-29T11:12:48;5.10;;;3.30;;
45887;SDS011;31595;51.418;7.572;2022-07-29T11:15:17;4.15;;;3.10;;
45887;SDS011;31595;51.418;7.572;2022-07-29T11:18:05;8.38;;;4.00;;
45887;SDS011;31595;51.418;7.572;2022-07-29T11:20:37;7.90;;;3.50;;
45887;SDS011;31595;51.418;7.572;2022-07-29T11:23:18;10.45;;;3.83;;
45887;SDS011;31595;51.418;7.572;2022-07-29T11:26:13;6.00;;;3.45;;
45887;SDS011;31595;51.418;7.572;2022-07-29T11:28:49;8.23;;;2.90;;
45887;SDS011;31595;51.418;7.572;2022-07-29T11:31:19;5.40;;;3.08;;
45887;SDS011;31595;51.418;7.572;2022-07-29T11:40:09;5.15;;;3.22;;
45887;SDS011;31595;51.418;7.572;2022-07-29T11:42:44;9.13;;;3.13;;
45887;SDS011;31595;51.418;7.572;2022-07-29T11:45:13;6.25;;;2.97;;
45887;SDS011;31595;51.418;7.572;2022-07-29T11:47:47;6.80;;;2.90;;
45887;SDS011;31595;51.418;7.572;2022-07-29T11:50:17;5.63;;;3.08;;
45887;SDS011;31595;51.418;7.572;2022-07-29T11:52:53;6.68;;;2.92;;
45887;SDS011;31595;51.418;7.572;2022-07-29T11:55:20;5.60;;;2.33;;
45887;SDS011;31595;51.418;7.572;2022-07-29T11:57:51;6.43;;;2.60;;
45887;SDS011;31595;51.418;7.572;2022-07-29T12:00:21;5.60;;;2.70;;
45887;SDS011;31595;51.418;7.572;2022-07-29T12:02:50;6.28;;;2.67;;
45887;SDS011;31595;51.418;7.572;2022-07-29T12:05:18;5.18;;;2.72;;
45887;SDS011;31595;51.418;7.572;2022-07-29T12:07:46;6.15;;;2.88;;
45887;SDS011;31595;51.418;7.572;2022-07-29T12:12:42;5.60;;;2.20;;
45887;SDS011;31595;51.418;7.572;2022-07-29T12:15:14;7.38;;;2.80;;
45887;SDS011;31595;51.418;7.572;2022-07-29T12:17:46;6.55;;;2.83;;
45887;SDS011;31595;51.418;7.572;2022-07-29T12:20:21;7.45;;;2.38;;
45887;SDS011;31595;51.418;7.572;2022-07-29T12:22:49;4.40;;;2.75;;
45887;SDS011;31595;51.418;7.572;2022-07-29T12:25:19;5.60;;;2.67;;
45887;SDS011;31595;51.418;7.572;2022-07-29T12:27:47;4.15;;;2.15;;
45887;SDS011;31595;51.418;7.572;2022-07-29T12:30:33;3.85;;;2.35;;
45887;SDS011;31595;51.418;7.572;2022-07-29T12:33:12;7.40;;;2.80;;
45887;SDS011;31595;51.418;7.572;2022-07-29T12:35:41;4.15;;;2.42;;
45887;SDS011;31595;51.418;7.572;2022-07-29T12:38:10;6.88;;;3.08;;
45887;SDS011;31595;51.418;7.572;2022-07-29T12:40:38;5.30;;;2.88;;
45887;SDS011;31595;51.418;7.572;2022-07-29T12:43:07;5.50;;;3.05;;
45887;SDS011;31595;51.418;7.572;2022-07-29T12:45:37;5.55;;;2.70;;
45887;SDS011;31595;51.418;7.572;2022-07-29T12:48:05;6.53;;;2.70;;
45887;SDS011;31595;51.418;7.572;2022-07-29T12:50:35;5.40;;;2.50;;
45887;SDS011;31595;51.418;7.572;2022-07-29T12:53:10;5.82;;;2.50;;
45887;SDS011;31595;51.418;7.572;2022-07-29T12:55:42;5.50;;;2.70;;
45887;SDS011;31595;51.418;7.572;2022-07-29T12:58:14;5.30;;;2.80;;
45887;SDS011;31595;51.418;7.572;2022-07-29T13:01:05;6.53;;;2.83;;
45887;SDS011;31595;51.418;7.572;2022-07-29T13:03:43;6.00;;;2.47;;
45887;SDS011;31595;51.418;7.572;2022-07-29T13:06:27;4.43;;;2.20;;
45887;SDS011;31595;51.418;7.572;2022-07-29T13:09:00;5.35;;;2.72;;
45887;SDS011;31595;51.418;7.572;2022-07-29T13:11:30;5.68;;;2.70;;
45887;SDS011;31595;51.418;7.572;2022-07-29T13:13:58;5.43;;;2.92;;
45887;SDS011;31595;51.418;7.572;2022-07-29T13:16:27;6.47;;;3.35;;
45887;SDS011;31595;51.418;7.572;2022-07-29T13:19:09;6.20;;;2.42;;
45887;SDS011;31595;51.418;7.572;2022-07-29T13:21:38;5.10;;;2.80;;
45887;SDS011;31595;51.418;7.572;2022-07-29T13:24:06;5.53;;;2.80;;
45887;SDS011;31595;51.418;7.572;2022-07-29T13:26:34;5.65;;;2.63;;
45887;SDS011;31595;51.418;7.572;2022-07-29T13:29:02;3.72;;;2.38;;
45887;SDS011;31595;51.418;7.572;2022-07-29T13:31:30;4.43;;;2.95;;
45887;SDS011;31595;51.418;7.572;2022-07-29T13:33:58;6.28;;;2.72;;
45887;SDS011;31595;51.418;7.572;2022-07-29T13:36:25;9.30;;;3.10;;
45887;SDS011;31595;51.418;7.572;2022-07-29T13:38:53;8.50;;;3.40;;
45887;SDS011;31595;51.418;7.572;2022-07-29T13:41:20;5.93;;;3.63;;
45887;SDS011;31595;51.418;7.572;2022-07-29T13:43:47;5.72;;;2.97;;
45887;SDS011;31595;51.418;7.572;2022-07-29T13:46:14;6.70;;;2.92;;
45887;SDS011;31595;51.418;7.572;2022-07-29T13:48:43;6.30;;;2.67;;
45887;SDS011;31595;51.418;7.572;2022-07-29T13:51:11;6.60;;;2.90;;
45887;SDS011;31595;51.418;7.572;2022-07-29T13:53:38;7.50;;;2.72;;
45887;SDS011;31595;51.418;7.572;2022-07-29T13:56:05;5.15;;;3.25;;
45887;SDS011;31595;51.418;7.572;2022-07-29T13:58:33;5.68;;;2.83;;
45887;SDS011;31595;51.418;7.572;2022-07-29T14:01:01;5.32;;;2.67;;
45887;SDS011;31595;51.418;7.572;2022-07-29T14:03:28;5.10;;;2.60;;
45887;SDS011;31595;51.418;7.572;2022-07-29T14:05:57;5.25;;;3.00;;
45887;SDS011;31595;51.418;7.572;2022-07-29T14:08:25;5.20;;;2.97;;
45887;SDS011;31595;51.418;7.572;2022-07-29T14:10:53;5.18;;;3.25;;
45887;SDS011;31595;51.418;7.572;2022-07-29T14:13:20;7.15;;;3.15;;
45887;SDS011;31595;51.418;7.572;2022-07-29T14:15:47;5.90;;;3.35;;
45887;SDS011;31595;51.418;7.572;2022-07-29T14:18:14;4.75;;;3.22;;
45887;SDS011;31595;51.418;7.572;2022-07-29T14:20:42;6.40;;;3.08;;
45887;SDS011;31595;51.418;7.572;2022-07-29T14:23:10;4.63;;;2.90;;
45887;SDS011;31595;51.418;7.572;2022-07-29T14:25:38;6.95;;;3.38;;
45887;SDS011;31595;51.418;7.572;2022-07-29T14:28:05;5.00;;;2.88;;
45887;SDS011;31595;51.418;7.572;2022-07-29T14:30:32;4.85;;;2.78;;
45887;SDS011;31595;51.418;7.572;2022-07-29T14:33:00;5.05;;;2.90;;
45887;SDS011;31595;51.418;7.572;2022-07-29T14:35:27;5.63;;;2.70;;
45887;SDS011;31595;51.418;7.572;2022-07-29T14:37:54;5.80;;;2.70;;
45887;SDS011;31595;51.418;7.572;2022-07-29T14:40:24;5.28;;;2.75;;
45887;SDS011;31595;51.418;7.572;2022-07-29T14:42:52;4.88;;;2.78;;
45887;SDS011;31595;51.418;7.572;2022-07-29T14:45:20;7.57;;;2.95;;
45887;SDS011;31595;51.418;7.572;2022-07-29T14:47:48;6.50;;;2.83;;
45887;SDS011;31595;51.418;7.572;2022-07-29T14:50:16;6.47;;;2.78;;
45887;SDS011;31595;51.418;7.572;2022-07-29T14:52:44;6.78;;;2.67;;
45887;SDS011;31595;51.418;7.572;2022-07-29T14:55:11;5.18;;;2.53;;
45887;SDS011;31595;51.418;7.572;2022-07-29T14:57:40;4.55;;;2.65;;
45887;SDS011;31595;51.418;7.572;2022-07-29T15:00:08;5.65;;;2.50;;
45887;SDS011;31595;51.418;7.572;2022-07-29T15:02:36;6.32;;;2.80;;
45887;SDS011;31595;51.418;7.572;2022-07-29T15:05:04;4.63;;;2.85;;
45887;SDS011;31595;51.418;7.572;2022-07-29T15:07:32;6.00;;;2.90;;
45887;SDS011;31595;51.418;7.572;2022-07-29T15:09:59;5.22;;;2.65;;
45887;SDS011;31595;51.418;7.572;2022-07-29T15:12:26;6.13;;;2.50;;
45887;SDS011;31595;51.418;7.572;2022-07-29T15:14:55;4.97;;;2.35;;
45887;SDS011;31595;51.418;7.572;2022-07-29T15:17:22;3.72;;;2.40;;
45887;SDS011;31595;51.418;7.572;2022-07-29T15:19:50;4.05;;;2.35;;
45887;SDS011;31595;51.418;7.572;2022-07-29T15:22:17;5.75;;;2.92;;
45887;SDS011;31595;51.418;7.572;2022-07-29T15:24:44;6.50;;;2.60;;
45887;SDS011;31595;51.418;7.572;2022-07-29T15:27:12;4.95;;;2.92;;
45887;SDS011;31595;51.418;7.572;2022-07-29T15:29:40;4.43;;;2.63;;
45887;SDS011;31595;51.418;7.572;2022-07-29T15:32:09;7.85;;;3.22;;
45887;SDS011;31595;51.418;7.572;2022-07-29T15:34:37;6.78;;;2.70;;
45887;SDS011;31595;51.418;7.572;2022-07-29T15:37:04;4.63;;;2.50;;